Terminal Aerodrome Forecast
Issued by NWS

Home | Current Version | Previous Version | Text Only | Print | Product List | Glossary On
Versions: 1 2 3 4 5 6 7 8 9 10 11 12 13 14 15 16 17 18 19 20
000
FTUS44 KTSA 162300
TAFBVO
TAF
KBVO 162337Z 1700/1724 08003KT P6SM SCT023
      TEMPO 1700/1702 BKN023
     FM170600 17002KT P6SM OVC250
     FM170900 19002KT 5SM BR OVC250
     FM171200 19006KT P6SM SCT250=

USA.gov is the U.S. government's official web portal to all federal, state and local government web resources and services.